Time;durP1;ratioP1;P1;durP2;ratioP2;P2;SDS_P1;SDS_P2;PMS_P1;PMS_P2;Temp;Humidity;BMP_temperature;BMP_pressure;BME280_temperature;BME280_humidity;BME280_pressure;Samples;Min_cycle;Max_cycle;Signal;HPM_P1;HPM_P2
2023/03/02 00:01:36;;;;;;;;;57.25;45.50;;;;;4.48;82.35;101311.84;4906499;29;45512;-82
2023/03/02 00:04:05;;;;;;;;;59.75;50.00;;;;;4.49;82.38;101311.03;4906435;29;46348;-82
2023/03/02 00:06:37;;;;;;;;;60.00;47.00;;;;;4.43;82.31;101310.75;4906929;29;45309;-83
2023/03/02 00:09:04;;;;;;;;;62.50;50.50;;;;;4.40;82.94;101321.13;4908713;29;45330;-82
2023/03/02 00:11:31;;;;;;;;;58.50;47.75;;;;;4.39;82.35;101316.69;4906679;29;45421;-81
2023/03/02 00:13:57;;;;;;;;;68.75;51.00;;;;;4.37;83.07;101319.25;4891471;29;46839;-83
2023/03/02 00:16:22;;;;;;;;;59.75;48.50;;;;;4.37;82.98;101318.34;4906798;29;45379;-83
2023/03/02 00:18:47;;;;;;;;;57.50;47.00;;;;;4.33;82.94;101308.50;4906184;29;45422;-82
2023/03/02 00:21:13;;;;;;;;;58.75;49.50;;;;;4.38;83.49;101323.72;4906029;29;45423;-82
2023/03/02 00:23:38;;;;;;;;;61.50;48.50;;;;;4.35;82.81;101313.00;4905607;29;45432;-81
2023/03/02 00:26:05;;;;;;;;;56.00;47.50;;;;;4.41;82.94;101322.94;4905568;29;45450;-82
2023/03/02 00:28:31;;;;;;;;;62.25;52.00;;;;;4.35;83.65;101317.38;4905871;29;45420;-82
2023/03/02 00:30:57;;;;;;;;;58.75;47.75;;;;;4.40;83.25;101322.06;4889489;29;45387;-82
2023/03/02 00:33:23;;;;;;;;;56.00;44.75;;;;;4.35;83.07;101323.53;4906406;29;46186;-81
2023/03/02 00:35:48;;;;;;;;;59.75;49.00;;;;;4.31;83.59;101318.06;4890475;29;45533;-82
2023/03/02 00:38:14;;;;;;;;;50.00;42.00;;;;;4.25;83.57;101312.50;4906683;29;45772;-83
2023/03/02 00:40:45;;;;;;;;;62.25;50.25;;;;;4.32;83.27;101317.22;4905462;29;45409;-82
2023/03/02 00:43:11;;;;;;;;;58.00;48.75;;;;;4.20;84.05;101307.91;4905483;29;45692;-82
2023/03/02 00:45:42;;;;;;;;;60.00;47.25;;;;;4.25;84.32;101323.03;4889845;29;45969;-81
2023/03/02 00:48:08;;;;;;;;;64.25;47.50;;;;;4.25;84.46;101320.41;4904720;29;45447;-83
2023/03/02 00:50:39;;;;;;;;;57.25;49.25;;;;;4.21;83.93;101319.34;4906720;29;45227;-82
2023/03/02 00:53:08;;;;;;;;;60.75;47.25;;;;;4.19;84.55;101321.00;4904133;29;47721;-83
2023/03/02 00:55:36;;;;;;;;;56.25;46.25;;;;;4.22;84.21;101315.88;4903495;29;45500;-83
2023/03/02 00:58:03;;;;;;;;;55.25;44.75;;;;;4.12;84.98;101314.53;4908931;29;45465;-83
2023/03/02 01:00:29;;;;;;;;;55.50;47.75;;;;;4.15;84.67;101321.66;4908631;29;45723;-83
2023/03/02 01:02:55;;;;;;;;;60.00;50.00;;;;;4.10;84.59;101315.25;4892920;29;48047;-82
2023/03/02 01:05:21;;;;;;;;;52.50;44.25;;;;;4.05;85.65;101312.41;4910768;29;45538;-81
2023/03/02 01:07:48;;;;;;;;;52.25;42.50;;;;;4.06;85.34;101314.22;4909377;29;45449;-83
2023/03/02 01:10:13;;;;;;;;;57.50;47.25;;;;;4.07;85.89;101318.66;4877098;29;45428;-83
2023/03/02 01:12:39;;;;;;;;;60.00;44.75;;;;;4.02;85.49;101312.28;4891177;29;45730;-82
2023/03/02 01:15:06;;;;;;;;;59.00;45.25;;;;;4.08;85.37;101320.47;4891489;29;45424;-83
2023/03/02 01:17:32;;;;;;;;;63.00;48.75;;;;;3.97;85.63;101314.66;4890756;29;45432;-83
2023/03/02 01:19:57;;;;;;;;;60.50;49.50;;;;;3.97;85.76;101314.66;4909561;29;45432;-83
2023/03/02 01:22:29;;;;;;;;;48.25;44.00;;;;;3.94;86.35;101297.84;4907845;28;46313;-84
2023/03/02 01:24:55;;;;;;;;;53.50;44.00;;;;;3.93;86.00;101302.16;4908297;29;45291;-83
2023/03/02 01:27:21;;;;;;;;;60.00;49.00;;;;;3.94;86.03;101313.63;4909822;29;45629;-82
2023/03/02 01:29:46;;;;;;;;;57.75;45.50;;;;;3.94;86.23;101309.25;4893981;29;45469;-82
2023/03/02 01:32:11;;;;;;;;;58.00;46.00;;;;;3.96;86.34;101306.72;4890577;29;47283;-83
2023/03/02 01:34:37;;;;;;;;;52.50;46.25;;;;;3.95;86.14;101299.63;4891325;29;45432;-82
2023/03/02 01:37:02;;;;;;;;;50.25;45.00;;;;;3.96;86.53;101311.97;4909410;29;45189;-83
2023/03/02 01:39:28;;;;;;;;;54.50;46.25;;;;;3.95;86.60;101305.78;4910204;29;45479;-83
2023/03/02 01:41:53;;;;;;;;;62.25;48.00;;;;;3.83;86.72;101286.75;4909654;29;46071;-83
2023/03/02 01:44:42;;;;;;;;;53.50;44.75;;;;;3.97;86.17;101301.50;4909920;29;45378;-83
2023/03/02 01:47:17;;;;;;;;;54.00;46.25;;;;;3.97;87.46;101303.25;4893088;29;45683;-83
2023/03/02 01:49:48;;;;;;;;;55.50;46.50;;;;;3.87;86.77;101279.94;4891583;29;45411;-83
2023/03/02 01:52:15;;;;;;;;;51.00;45.75;;;;;3.87;87.27;101287.81;4890838;29;46201;-83
2023/03/02 01:54:42;;;;;;;;;48.25;42.25;;;;;3.90;86.84;101286.25;4891648;29;45488;-83
2023/03/02 01:57:10;;;;;;;;;51.50;42.25;;;;;3.88;87.31;101287.91;4892841;29;45294;-83
2023/03/02 01:59:38;;;;;;;;;46.50;40.25;;;;;3.81;87.58;101288.41;4893155;29;45703;-83
2023/03/02 02:02:07;;;;;;;;;51.25;44.00;;;;;3.88;87.55;101290.53;4891823;29;48151;-81
2023/03/02 02:04:36;;;;;;;;;54.00;47.50;;;;;3.80;87.22;101278.72;4908672;29;45787;-84
2023/03/02 02:07:05;;;;;;;;;48.25;42.25;;;;;3.83;87.48;101286.75;4891922;29;45518;-83
2023/03/02 02:09:40;;;;;;;;;63.00;50.00;;;;;3.85;88.20;101289.47;4908908;29;45469;-82
2023/03/02 02:12:10;;;;;;;;;62.75;48.50;;;;;3.75;87.86;101281.09;4907445;29;45495;-82
2023/03/02 02:14:36;;;;;;;;;64.00;47.50;;;;;3.65;88.19;101285.84;4907161;29;45435;-84
2023/03/02 02:17:01;;;;;;;;;56.50;47.00;;;;;3.59;88.52;101275.91;4908417;29;45412;-83
2023/03/02 02:19:47;;;;;;;;;65.50;51.75;;;;;3.60;88.95;101280.34;4908914;29;45336;-83
2023/03/02 02:22:21;;;;;;;;;50.50;44.25;;;;;3.51;88.59;101270.25;4890287;29;48144;-81
2023/03/02 02:24:56;;;;;;;;;50.50;42.25;;;;;3.46;89.96;101278.75;4891882;29;44754;-83
2023/03/02 02:27:28;;;;;;;;;60.00;48.50;;;;;3.37;89.11;101282.72;4892292;29;45423;-83
2023/03/02 02:29:57;;;;;;;;;57.25;45.25;;;;;3.37;89.24;101282.72;4890827;29;45506;-82
2023/03/02 02:32:26;;;;;;;;;50.00;44.75;;;;;3.30;92.13;101279.69;4890486;29;46273;-83
2023/03/02 02:35:09;;;;;;;;;55.75;47.50;;;;;3.32;90.21;101284.19;4907748;29;45459;-81
2023/03/02 02:37:45;;;;;;;;;45.50;39.25;;;;;3.26;89.68;101272.47;4908394;29;45449;-81
2023/03/02 02:40:15;;;;;;;;;56.25;46.00;;;;;3.22;91.43;101271.38;4909600;29;45464;-82
2023/03/02 02:42:45;;;;;;;;;54.75;44.50;;;;;3.16;92.45;101273.69;4891330;29;46916;-83
2023/03/02 02:45:30;;;;;;;;;56.25;46.75;;;;;3.16;91.50;101273.69;4892110;29;45431;-82
2023/03/02 02:47:56;;;;;;;;;54.50;43.25;;;;;3.05;91.55;101266.97;4910120;29;45577;-81
2023/03/02 02:50:32;;;;;;;;;47.75;40.75;;;;;3.14;91.60;101262.19;4890917;29;45463;-82
2023/03/02 02:53:10;;;;;;;;;48.25;43.00;;;;;3.13;91.71;101256.03;4908377;29;46130;-83
2023/03/02 02:55:36;;;;;;;;;55.25;47.50;;;;;3.12;92.08;101264.75;4891460;29;45752;-84
2023/03/02 02:58:12;;;;;;;;;53.25;42.50;;;;;3.23;91.90;101267.03;4908074;29;45597;-83
2023/03/02 03:00:38;;;;;;;;;52.25;44.50;;;;;3.16;91.75;101257.94;4890865;29;45557;-82
2023/03/02 03:03:28;;;;;;;;;52.75;44.75;;;;;3.24;91.35;101253.97;4890900;29;47057;-82
2023/03/02 03:05:54;;;;;;;;;54.50;48.00;;;;;3.15;91.33;101248.22;4890051;29;45427;-83
2023/03/02 03:08:42;;;;;;;;;53.50;46.25;;;;;3.27;90.96;101258.47;4906386;29;45429;-82
2023/03/02 03:11:12;;;;;;;;;44.75;41.50;;;;;3.18;91.41;101249.28;4906227;29;44891;-82
2023/03/02 03:13:39;;;;;;;;;46.75;42.50;;;;;3.17;92.36;101252.75;4905799;29;47253;-82
2023/03/02 03:16:10;;;;;;;;;56.00;44.00;;;;;3.20;92.50;101254.63;4891485;29;45312;-82
2023/03/02 03:18:35;;;;;;;;;49.50;43.50;;;;;3.18;92.00;101266.78;4907261;29;45437;-83
2023/03/02 03:21:01;;;;;;;;;55.75;44.75;;;;;3.17;92.09;101258.00;4907698;29;45355;-82
2023/03/02 03:23:27;;;;;;;;;45.50;43.00;;;;;3.13;92.67;101249.88;4908120;28;46185;-82
2023/03/02 03:25:52;;;;;;;;;54.25;46.50;;;;;3.11;93.54;101257.69;4907929;29;45448;-82
2023/03/02 03:28:18;;;;;;;;;53.50;45.50;;;;;3.00;92.89;101257.09;4907655;29;45324;-82
2023/03/02 03:30:43;;;;;;;;;58.25;47.25;;;;;2.99;92.82;101252.69;4907996;29;45752;-82
2023/03/02 03:33:12;;;;;;;;;44.75;38.75;;;;;3.02;93.46;101261.56;4890871;29;47861;-83
2023/03/02 03:35:39;;;;;;;;;32.50;29.50;;;;;3.02;93.24;101257.19;4890936;29;45443;-82
2023/03/02 03:38:06;;;;;;;;;61.00;48.00;;;;;2.98;93.01;101253.50;4889887;29;45429;-82
2023/03/02 03:40:34;;;;;;;;;63.50;47.00;;;;;3.02;93.46;101262.44;4891796;29;45531;-81
2023/03/02 03:43:01;;;;;;;;;60.00;46.75;;;;;3.02;92.81;101254.56;4890821;29;47588;-82
2023/03/02 03:45:26;;;;;;;;;52.75;45.75;;;;;2.99;93.09;101257.94;4890450;29;45488;-83
2023/03/02 03:47:53;;;;;;;;;60.25;48.25;;;;;3.03;93.62;101253.75;4890407;29;45495;-83
2023/03/02 03:50:18;;;;;;;;;51.75;44.00;;;;;3.00;92.89;101251.84;4891166;29;45571;-81
2023/03/02 03:52:44;;;;;;;;;40.75;38.75;;;;;2.96;93.65;101246.38;4891642;29;46825;-81
2023/03/02 03:55:10;;;;;;;;;54.25;47.00;;;;;2.98;93.75;101242.97;4893730;29;45409;-82
2023/03/02 03:57:35;;;;;;;;;48.00;40.25;;;;;3.00;93.51;101254.47;4910210;29;45466;-83
2023/03/02 04:00:01;;;;;;;;;54.00;46.25;;;;;2.98;93.26;101245.63;4894025;29;45558;-81
2023/03/02 04:02:27;;;;;;;;;48.50;43.75;;;;;3.02;94.20;101262.44;4893843;29;48330;-81
2023/03/02 04:04:52;;;;;;;;;51.75;45.25;;;;;3.00;93.78;101259.72;4907309;29;45581;-82
2023/03/02 04:07:18;;;;;;;;;62.25;50.00;;;;;2.98;93.50;101258.75;4891759;29;45494;-82
2023/03/02 04:09:43;;;;;;;;;53.50;44.00;;;;;2.96;93.84;101257.78;4908914;29;45730;-83
2023/03/02 04:12:09;;;;;;;;;57.00;46.00;;;;;2.96;94.24;101249.88;4907294;29;46064;-82
2023/03/02 04:14:35;;;;;;;;;51.75;45.75;;;;;3.05;94.04;101259.06;4911095;29;45752;-83
2023/03/02 04:17:04;;;;;;;;;57.75;45.50;;;;;3.03;94.06;101258.09;4877853;29;45471;-83
2023/03/02 04:19:30;;;;;;;;;44.75;41.75;;;;;3.00;94.86;101264.09;4892221;29;44904;-82
2023/03/02 04:21:57;;;;;;;;;60.50;47.25;;;;;2.95;93.69;101274.38;4909366;28;45481;-82
2023/03/02 04:24:23;;;;;;;;;56.75;47.00;;;;;2.94;94.49;101269.91;4910255;29;45390;-83
2023/03/02 04:26:51;;;;;;;;;59.00;49.00;;;;;2.97;93.99;101270.09;4892977;29;44869;-82
2023/03/02 04:29:17;;;;;;;;;58.25;49.25;;;;;2.90;94.56;101275.84;4892689;29;45492;-82
2023/03/02 04:31:43;;;;;;;;;57.25;48.75;;;;;2.82;94.78;101264.00;4908225;29;47048;-83
2023/03/02 04:34:08;;;;;;;;;53.75;44.00;;;;;2.86;94.95;101265.97;4908348;29;45388;-83
2023/03/02 04:36:37;;;;;;;;;55.50;45.50;;;;;2.89;94.79;101263.53;4890622;29;45445;-83
2023/03/02 04:39:04;;;;;;;;;50.75;45.50;;;;;2.88;94.97;101274.84;4891346;29;45517;-81
2023/03/02 04:41:29;;;;;;;;;56.50;47.00;;;;;2.84;94.63;101269.34;4908752;29;45999;-81
2023/03/02 04:43:55;;;;;;;;;41.75;37.00;;;;;2.78;95.24;101270.81;4909477;29;45667;-82
2023/03/02 04:46:23;;;;;;;;;58.25;48.25;;;;;2.91;95.45;101281.97;4909434;29;45317;-82
2023/03/02 04:48:49;;;;;;;;;55.75;45.75;;;;;2.82;95.12;101277.16;4908972;29;44963;-83
2023/03/02 04:51:23;;;;;;;;;63.50;48.25;;;;;2.89;95.49;101274.03;4908641;29;45496;-83
2023/03/02 04:53:53;;;;;;;;;51.50;44.25;;;;;2.88;95.45;101282.72;4890148;29;45006;-84
2023/03/02 04:56:20;;;;;;;;;60.00;49.00;;;;;2.78;96.10;101267.28;4906241;29;45416;-83
2023/03/02 04:58:45;;;;;;;;;60.50;48.75;;;;;2.78;95.48;101277.81;4908032;29;46076;-81
2023/03/02 05:01:15;;;;;;;;;66.00;49.75;;;;;2.83;95.70;101284.22;4906789;29;46106;-82
2023/03/02 05:03:41;;;;;;;;;61.75;48.50;;;;;2.74;95.28;101278.47;4890424;29;45503;-82
2023/03/02 05:06:07;;;;;;;;;57.50;46.00;;;;;2.75;96.84;101275.91;4908005;29;45740;-82
2023/03/02 05:08:33;;;;;;;;;55.25;46.75;;;;;2.76;96.02;101279.44;4890828;29;45537;-82
2023/03/02 05:10:58;;;;;;;;;59.50;49.25;;;;;2.75;96.04;101283.81;4909472;29;45811;-83
2023/03/02 05:13:25;;;;;;;;;64.50;53.50;;;;;2.74;96.96;101286.34;4892927;29;45417;-83
2023/03/02 05:15:51;;;;;;;;;62.50;49.75;;;;;2.66;96.57;101282.41;4907826;29;45354;-83
2023/03/02 05:18:18;;;;;;;;;61.50;51.25;;;;;2.69;96.92;101272.06;4907804;29;45432;-82
2023/03/02 05:20:44;;;;;;;;;59.50;48.00;;;;;2.64;97.70;101268.28;4874767;29;47131;-82
2023/03/02 05:23:12;;;;;;;;;60.25;47.50;;;;;2.59;98.83;101261.06;4890239;29;45770;-81
2023/03/02 05:25:38;;;;;;;;;66.50;52.50;;;;;2.52;97.85;101269.41;4891808;29;44871;-83
2023/03/02 05:28:04;;;;;;;;;61.25;48.00;;;;;2.56;98.90;101273.09;4908647;29;45375;-82
2023/03/02 05:30:31;;;;;;;;;54.75;48.25;;;;;2.51;97.92;101278.13;4908312;29;45430;-82
2023/03/02 05:32:57;;;;;;;;;60.50;48.00;;;;;2.49;99.59;101271.88;4891333;29;45389;-81
2023/03/02 05:35:23;;;;;;;;;56.50;48.50;;;;;2.43;98.67;101274.16;4891599;29;45436;-81
2023/03/02 05:37:48;;;;;;;;;60.50;48.25;;;;;2.42;98.29;101271.44;4895202;29;45855;-82
2023/03/02 05:40:17;;;;;;;;;62.00;52.50;;;;;2.51;99.42;101278.13;4893246;29;48311;-81
2023/03/02 05:42:43;;;;;;;;;61.75;51.50;;;;;2.45;98.35;101272.53;4895476;28;45845;-82
2023/03/02 05:45:18;;;;;;;;;61.75;50.00;;;;;2.45;99.17;101272.53;4910914;28;45426;-82
2023/03/02 05:47:45;;;;;;;;;64.00;52.25;;;;;2.46;100.00;101282.19;4894279;29;45406;-83
2023/03/02 05:50:11;;;;;;;;;58.00;45.25;;;;;2.37;99.64;101284.31;4892852;29;47130;-83
2023/03/02 05:52:36;;;;;;;;;61.50;51.25;;;;;2.27;99.34;101279.38;4893216;28;45385;-83
2023/03/02 05:55:01;;;;;;;;;66.00;50.25;;;;;2.24;100.00;101276.56;4909219;28;45473;-84
2023/03/02 05:57:27;;;;;;;;;62.50;50.75;;;;;2.24;100.00;101293.22;4892325;29;45432;-83
2023/03/02 05:59:52;;;;;;;;;60.75;49.00;;;;;2.16;100.00;101284.94;4909680;29;45368;-83
2023/03/02 06:02:18;;;;;;;;;61.25;49.00;;;;;2.10;100.00;101281.97;4891906;29;45880;-81
2023/03/02 06:04:43;;;;;;;;;55.50;46.50;;;;;2.16;100.00;101291.88;4892103;29;45552;-82
2023/03/02 06:07:10;;;;;;;;;57.50;46.50;;;;;2.16;100.00;101295.44;4893346;29;45391;-82
2023/03/02 06:09:37;;;;;;;;;68.75;51.75;;;;;2.25;100.00;101297.66;4895237;29;47634;-83
2023/03/02 06:12:05;;;;;;;;;52.75;46.00;;;;;2.25;100.00;101296.75;4894551;29;45714;-82
2023/03/02 06:14:31;;;;;;;;;60.75;49.50;;;;;2.18;100.00;101293.78;4894543;29;45518;-82
2023/03/02 06:16:56;;;;;;;;;65.50;52.25;;;;;2.14;100.00;101297.06;4911058;29;45545;-82
2023/03/02 06:19:21;;;;;;;;;65.25;52.75;;;;;2.22;100.00;101313.22;4892782;29;46709;-82
2023/03/02 06:21:47;;;;;;;;;55.25;49.50;;;;;2.17;100.00;101305.09;4909539;28;44829;-82
2023/03/02 06:24:12;;;;;;;;;55.25;48.00;;;;;2.24;100.00;101308.06;4909012;29;44989;-82
2023/03/02 06:26:38;;;;;;;;;61.75;51.25;;;;;2.23;99.89;101307.16;4892247;29;45493;-82
2023/03/02 06:29:04;;;;;;;;;65.00;47.50;;;;;2.16;100.00;101310.25;4909147;29;45521;-82
2023/03/02 06:31:30;;;;;;;;;59.75;51.25;;;;;2.19;100.00;101311.31;4890129;29;45522;-82
2023/03/02 06:37:25;;;;;;;;;59.25;47.75;;;;;2.20;100.00;101323.66;4909227;29;44854;-82
2023/03/02 06:39:50;;;;;;;;;68.50;53.50;;;;;2.23;100.00;101320.28;4908990;29;45503;-82
2023/03/02 06:42:15;;;;;;;;;62.75;50.75;;;;;2.16;100.00;101321.66;4911663;29;45584;-83
2023/03/02 06:44:41;;;;;;;;;54.50;47.75;;;;;2.21;100.00;101324.53;4911090;29;45429;-83
2023/03/02 06:47:06;;;;;;;;;63.25;52.50;;;;;2.18;100.00;101317.41;4910601;29;44968;-83
2023/03/02 06:49:32;;;;;;;;;61.75;51.00;;;;;2.23;100.00;101322.00;4892992;29;46554;-83
2023/03/02 06:51:57;;;;;;;;;62.75;53.00;;;;;2.19;100.00;101316.56;4896409;29;45400;-85
2023/03/02 06:54:22;;;;;;;;;53.50;43.50;;;;;2.27;100.00;101326.63;4913909;29;45402;-83
2023/03/02 06:56:48;;;;;;;;;59.25;49.00;;;;;2.33;100.00;101329.59;4912827;29;45714;-82
2023/03/02 06:59:15;;;;;;;;;62.50;53.25;;;;;2.29;100.00;101314.50;4910284;29;45620;-82
2023/03/02 07:01:40;;;;;;;;;64.25;53.75;;;;;2.37;100.00;101328.94;4909048;29;45393;-83
2023/03/02 07:04:06;;;;;;;;;63.50;49.50;;;;;2.33;100.00;101340.97;4892210;29;45461;-81
2023/03/02 07:06:31;;;;;;;;;58.00;45.75;;;;;2.30;100.00;101329.41;4892941;29;45497;-81
2023/03/02 07:08:56;;;;;;;;;66.50;54.50;;;;;2.35;100.00;101336.72;4889127;29;46077;-82
2023/03/02 07:11:22;;;;;;;;;56.50;47.00;;;;;2.37;100.00;101331.56;4875463;29;45423;-81
2023/03/02 07:13:48;;;;;;;;;61.50;48.25;;;;;2.40;100.00;101331.72;4890452;29;45458;-83
2023/03/02 07:16:14;;;;;;;;;65.00;53.75;;;;;2.46;100.00;101332.06;4891114;29;45538;-83
2023/03/02 07:18:40;;;;;;;;;63.75;49.00;;;;;2.40;100.00;101327.41;4880206;29;48353;-80
2023/03/02 07:21:12;;;;;;;;;56.00;47.25;;;;;2.50;100.00;101323.53;4909394;29;45549;-81
2023/03/02 07:23:37;;;;;;;;;66.50;51.75;;;;;2.45;100.00;101326.75;4909941;28;45508;-85
2023/03/02 07:26:07;;;;;;;;;60.75;51.25;;;;;2.52;100.00;101331.53;4889800;29;45713;-84
2023/03/02 07:28:32;;;;;;;;;66.25;54.00;;;;;2.56;100.00;101328.25;4892365;29;46660;-82
2023/03/02 07:30:58;;;;;;;;;65.25;52.50;;;;;2.58;100.00;101335.38;4910803;29;45366;-82
2023/03/02 07:36:46;;;;;;;;;69.75;51.25;;;;;2.57;100.00;101319.56;4909575;28;45434;-83
2023/03/02 07:39:11;;;;;;;;;70.75;56.50;;;;;2.58;100.00;101327.50;4893617;29;48267;-83
2023/03/02 07:41:37;;;;;;;;;62.00;50.75;;;;;2.52;100.00;101314.03;4889178;29;45343;-83
2023/03/02 07:44:02;;;;;;;;;68.25;51.50;;;;;2.63;100.00;101324.25;4871855;29;45694;-83
2023/03/02 07:46:27;;;;;;;;;63.50;51.25;;;;;2.62;100.00;101311.94;4890425;29;45427;-85
2023/03/02 07:48:54;;;;;;;;;66.50;55.00;;;;;2.69;100.00;101321.97;4888486;29;46772;-82
2023/03/02 07:51:20;;;;;;;;;68.50;52.75;;;;;2.64;100.00;101321.69;4892616;29;45554;-82
2023/03/02 07:53:45;;;;;;;;;68.50;52.75;;;;;2.64;100.00;101333.94;4901650;29;45448;-83
2023/03/02 07:56:11;;;;;;;;;58.00;49.50;;;;;2.70;100.00;101319.41;4908172;29;45382;-84
2023/03/02 07:58:37;;;;;;;;;66.75;53.50;;;;;2.81;100.00;101314.75;4890371;29;47013;-84
2023/03/02 08:01:03;;;;;;;;;67.00;54.00;;;;;2.91;100.00;101314.44;4888692;29;45454;-83
2023/03/02 08:03:42;;;;;;;;;63.00;52.00;;;;;2.98;100.00;101311.31;4907235;29;45342;-83
2023/03/02 08:06:11;;;;;;;;;66.50;51.75;;;;;3.10;100.00;101326.81;4894926;29;45419;-83
2023/03/02 08:08:37;;;;;;;;;71.50;54.00;;;;;3.09;99.06;101314.53;4914430;29;45508;-84
2023/03/02 08:11:05;;;;;;;;;68.00;56.00;;;;;3.13;100.00;101323.44;4891799;29;45545;-83
2023/03/02 08:13:32;;;;;;;;;63.75;54.00;;;;;3.20;100.00;101328.22;4915840;29;45466;-85
2023/03/02 08:16:02;;;;;;;;;61.25;51.25;;;;;3.24;99.63;101332.81;4902059;29;45720;-83
2023/03/02 08:18:28;;;;;;;;;69.25;56.00;;;;;3.18;99.96;101337.75;4894732;29;46810;-83
2023/03/02 08:20:54;;;;;;;;;66.50;53.75;;;;;3.19;100.00;101342.16;4892713;29;45561;-83
2023/03/02 08:23:19;;;;;;;;;69.50;53.00;;;;;3.16;99.71;101323.63;4858119;29;45836;-84
2023/03/02 08:25:46;;;;;;;;;61.75;50.25;;;;;3.29;100.00;101330.44;4909715;29;45532;-84
2023/03/02 08:28:11;;;;;;;;;66.00;53.00;;;;;3.22;100.00;101331.84;4892870;29;49656;-83
2023/03/02 08:30:37;;;;;;;;;72.00;56.50;;;;;3.26;100.00;101325.91;4911562;28;44804;-85
2023/03/02 08:33:05;;;;;;;;;64.50;50.75;;;;;3.42;98.98;101339.88;4915108;29;45335;-83
2023/03/02 08:35:30;;;;;;;;;66.50;54.25;;;;;3.45;99.49;101326.88;4904389;29;44936;-84
2023/03/02 08:37:58;;;;;;;;;62.25;53.50;;;;;3.47;99.12;101319.97;4896866;29;46209;-85
2023/03/02 08:40:25;;;;;;;;;71.00;56.00;;;;;3.55;99.02;101329.16;4918604;29;45217;-83
2023/03/02 08:43:54;;;;;;;;;65.75;54.75;;;;;3.76;97.95;101330.28;4913717;29;44843;-83
2023/03/02 08:46:20;;;;;;;;;73.00;59.00;;;;;3.86;97.33;101314.94;4837987;29;45421;-83
2023/03/02 08:48:48;;;;;;;;;61.50;52.75;;;;;3.98;95.92;101311.22;4837921;29;48459;-84
2023/03/02 08:51:17;;;;;;;;;72.75;57.50;;;;;4.10;97.25;101308.28;4852586;29;45482;-83
2023/03/02 08:53:46;;;;;;;;;68.00;54.00;;;;;4.16;96.06;101311.22;4838761;29;45416;-83
2023/03/02 08:56:25;;;;;;;;;67.25;56.25;;;;;4.27;94.90;101313.47;4853140;29;45443;-83
2023/03/02 08:58:52;;;;;;;;;63.50;54.75;;;;;4.28;95.93;101305.66;4838570;29;48192;-83
2023/03/02 09:01:27;;;;;;;;;73.00;58.50;;;;;4.44;94.76;101302.00;4854403;29;44882;-81
2023/03/02 09:03:56;;;;;;;;;73.75;56.50;;;;;4.49;94.19;101289.97;4836187;29;45368;-83
2023/03/02 09:13:09;;;;;;;;;68.75;55.25;;;;;4.55;92.74;101295.53;4842854;29;45290;-83
2023/03/02 09:15:34;;;;;;;;;54.25;48.00;;;;;4.61;93.28;101284.38;4854484;29;45571;-83
2023/03/02 09:18:00;;;;;;;;;66.25;54.75;;;;;4.46;93.32;101233.63;4837944;29;45417;-82
2023/03/02 09:20:26;;;;;;;;;58.00;48.50;;;;;4.64;92.05;101246.72;4839193;29;47066;-83
2023/03/02 09:22:51;;;;;;;;;66.50;53.25;;;;;4.81;91.69;101269.50;4905730;28;45327;-84
2023/03/02 09:25:18;;;;;;;;;67.25;54.75;;;;;4.71;91.93;101249.72;4917293;28;44939;-83
2023/03/02 09:27:50;;;;;;;;;73.75;58.25;;;;;4.89;91.71;101268.13;4907530;29;45511;-81
2023/03/02 09:30:19;;;;;;;;;68.50;55.25;;;;;4.98;90.80;101292.25;4912284;29;45382;-83
2023/03/02 09:43:25;;;;;;;;;75.50;58.75;;;;;5.23;90.01;101295.97;4909701;29;45648;-84
2023/03/02 09:46:33;;;;;;;;;68.75;55.75;;;;;5.26;90.19;101298.75;4896544;29;45480;-83
2023/03/02 09:49:14;;;;;;;;;65.75;52.75;;;;;5.28;89.79;101281.28;4821690;29;45473;-83
2023/03/02 09:52:00;;;;;;;;;75.00;58.00;;;;;5.36;89.30;101285.16;4839191;29;45505;-85
2023/03/02 09:54:27;;;;;;;;;72.00;58.00;;;;;5.34;89.66;101291.19;4859432;29;45141;-83
2023/03/02 09:56:57;;;;;;;;;69.25;58.00;;;;;5.40;88.93;101288.81;4837121;29;45638;-83
2023/03/02 09:59:37;;;;;;;;;71.50;57.50;;;;;5.60;89.35;101294.97;4841660;29;45344;-83
2023/03/02 10:02:32;;;;;;;;;72.75;59.00;;;;;5.67;88.40;101297.00;4826782;29;46077;-83
2023/03/02 10:05:05;;;;;;;;;70.75;55.50;;;;;5.64;88.20;101291.63;4837641;29;45488;-83
2023/03/02 10:07:32;;;;;;;;;64.25;52.75;;;;;5.66;88.10;101296.97;4839479;29;44946;-84
2023/03/02 10:10:21;;;;;;;;;71.00;58.00;;;;;5.82;87.92;101302.06;4843628;29;45570;-83
2023/03/02 10:16:14;;;;;;;;;71.25;57.00;;;;;5.99;87.18;101300.16;4838037;29;45505;-84
2023/03/02 10:19:08;;;;;;;;;69.25;56.00;;;;;6.11;86.52;101300.66;4841188;29;45490;-84
2023/03/02 10:21:48;;;;;;;;;69.25;55.25;;;;;6.11;85.70;101286.56;4830037;29;45491;-84
2023/03/02 10:24:20;;;;;;;;;74.75;60.00;;;;;6.19;86.82;101301.88;4842069;29;45800;-83
2023/03/02 10:27:21;;;;;;;;;68.25;57.75;;;;;6.21;84.51;101272.88;4931096;28;45308;-82
2023/03/02 10:29:59;;;;;;;;;76.50;59.25;;;;;6.25;84.87;101284.47;4897900;29;45643;-82
2023/03/02 10:32:31;;;;;;;;;70.50;56.50;;;;;6.14;85.53;101247.97;4895764;28;45632;-81
2023/03/02 10:35:01;;;;;;;;;68.25;55.25;;;;;6.26;84.29;101249.28;4909904;29;45222;-81
2023/03/02 10:37:30;;;;;;;;;66.25;54.25;;;;;6.46;82.84;101281.78;4905598;28;47593;-83
2023/03/02 10:40:24;;;;;;;;;64.00;52.50;;;;;6.36;84.01;101251.47;4905682;29;45274;-85
2023/03/02 10:42:51;;;;;;;;;63.25;52.75;;;;;6.32;83.85;101247.81;4882862;28;45405;-84
2023/03/02 10:45:37;;;;;;;;;63.00;54.00;;;;;6.56;83.21;101274.28;4899730;29;45733;-83
2023/03/02 10:48:15;;;;;;;;;68.00;54.50;;;;;6.30;81.33;101235.38;4917267;28;46039;-85
2023/03/02 10:50:51;;;;;;;;;68.00;55.50;;;;;6.48;81.00;101249.28;4880460;29;45323;-84
2023/03/02 10:53:18;;;;;;;;;61.75;51.00;;;;;6.51;81.69;101248.53;4913630;29;45409;-84
2023/03/02 10:55:50;;;;;;;;;68.00;55.25;;;;;6.68;82.60;101241.22;4896556;29;45397;-83
2023/03/02 10:58:33;;;;;;;;;68.25;55.50;;;;;6.84;81.69;101255.94;4899185;29;48036;-84
2023/03/02 11:01:06;;;;;;;;;67.75;56.00;;;;;6.83;81.34;101241.81;4885538;29;44786;-85
2023/03/02 11:03:38;;;;;;;;;67.75;55.25;;;;;6.90;80.89;101254.41;4900343;29;45302;-85
2023/03/02 11:06:18;;;;;;;;;69.25;56.75;;;;;6.93;79.71;101237.78;4901926;29;45419;-84
2023/03/02 11:09:05;;;;;;;;;65.75;53.25;;;;;7.05;79.18;101254.09;4912817;29;45307;-83
2023/03/02 11:11:31;;;;;;;;;62.25;51.00;;;;;7.05;79.90;101245.22;4886967;29;45416;-84
2023/03/02 11:14:12;;;;;;;;;61.75;50.75;;;;;7.19;78.25;101250.19;4901075;29;45605;-84
2023/03/02 11:16:38;;;;;;;;;59.25;49.75;;;;;6.91;76.55;101208.63;4910498;29;45423;-83
2023/03/02 11:19:23;;;;;;;;;64.25;51.50;;;;;7.16;78.21;101247.44;4906246;28;45622;-84
2023/03/02 11:22:01;;;;;;;;;67.75;54.00;;;;;7.19;78.29;101254.56;4900069;28;45572;-86
2023/03/02 11:28:00;;;;;;;;;59.75;48.00;;;;;7.26;78.43;101242.47;4914385;28;45450;-86
2023/03/02 11:30:28;;;;;;;;;62.75;52.50;;;;;7.35;79.01;101248.06;4917510;29;45478;-85
2023/03/02 11:33:28;;;;;;;;;65.50;52.00;;;;;7.41;74.04;101236.00;4901215;29;45864;-85
2023/03/02 11:36:02;;;;;;;;;69.50;54.50;;;;;7.42;77.62;101244.81;4883366;29;45360;-86
2023/03/02 11:38:59;;;;;;;;;59.25;48.75;;;;;7.43;75.23;101233.38;4890425;29;44826;-83
2023/03/02 11:41:31;;;;;;;;;63.00;52.75;;;;;7.57;76.28;101241.78;4889117;29;47668;-85
2023/03/02 11:44:14;;;;;;;;;60.00;46.25;;;;;7.65;77.10;101236.75;4918752;28;44922;-84
2023/03/02 11:47:00;;;;;;;;;59.25;49.00;;;;;7.69;76.10;101234.25;4886785;29;45373;-84
2023/03/02 11:49:41;;;;;;;;;66.00;54.25;;;;;7.81;75.80;101241.72;4897454;29;45316;-84
2023/03/02 11:52:34;;;;;;;;;65.50;52.50;;;;;7.88;75.16;101229.59;4898765;29;47020;-84
2023/03/02 11:55:22;;;;;;;;;66.00;53.25;;;;;7.75;74.36;101197.41;4911823;29;44848;-83
2023/03/02 11:58:16;;;;;;;;;58.25;48.75;;;;;7.95;75.21;101221.88;4869487;29;45532;-86